Time,TemperatureF,DewpointF,PressureIn,WindDirection,WindDirectionDegrees,WindSpeedMPH,WindSpeedGustMPH,Humidity,HourlyPrecipIn,Conditions,Clouds,dailyrainin,SoftwareType,DateUTC
2013-12-14 00:02:00,25.0,16.5,30.32,NNE,21,0.9,2.0,70,0.00,,,0.00,meteobridge,2013-12-14 05:02:00,
2013-12-14 00:05:00,25.0,16.5,30.32,NE,35,0.9,4.0,70,0.00,,,0.00,meteobridge,2013-12-14 05:05:00,
2013-12-14 00:07:00,25.0,16.9,30.32,East,82,2.0,4.9,71,0.00,,,0.00,meteobridge,2013-12-14 05:07:00,
2013-12-14 00:13:00,24.6,16.9,30.31,East,79,0.0,2.9,72,0.00,,,0.00,meteobridge,2013-12-14 05:13:00,
2013-12-14 00:17:00,24.6,16.9,30.31,NE,35,0.9,2.0,72,0.00,,,0.00,meteobridge,2013-12-14 05:17:00,
2013-12-14 00:19:00,24.4,16.7,30.32,NNE,20,0.9,2.0,72,0.00,,,0.00,meteobridge,2013-12-14 05:19:00,
2013-12-14 00:25:00,24.4,17.1,30.32,NE,45,0.0,0.9,73,0.00,,,0.00,meteobridge,2013-12-14 05:25:00,
2013-12-14 00:27:00,24.3,16.9,30.32,NNW,348,0.9,0.9,73,0.00,,,0.00,meteobridge,2013-12-14 05:27:00,
2013-12-14 00:34:00,24.3,17.2,30.33,NW,325,0.0,0.9,74,0.00,,,0.00,meteobridge,2013-12-14 05:34:00,
2013-12-14 00:40:00,24.1,17.1,30.32,NNW,330,0.0,0.9,74,0.00,,,0.00,meteobridge,2013-12-14 05:40:00,
2013-12-14 00:46:00,24.1,17.2,30.33,NNW,330,0.0,0.0,75,0.00,,,0.00,meteobridge,2013-12-14 05:46:00,
2013-12-14 00:53:00,23.9,17.1,30.33,NNW,330,0.0,0.0,75,0.00,,,0.00,meteobridge,2013-12-14 05:53:00,
2013-12-14 00:59:00,23.7,17.2,30.33,NNE,31,2.0,2.0,76,0.00,,,0.00,meteobridge,2013-12-14 05:59:00,
2013-12-14 01:05:00,23.7,18.0,30.33,NNE,22,0.9,4.0,78,0.00,,,0.00,meteobridge,2013-12-14 06:05:00,
2013-12-14 01:11:00,23.5,17.8,30.33,North,358,4.0,4.9,78,0.00,,,0.00,meteobridge,2013-12-14 06:11:00,
2013-12-14 01:17:00,23.5,18.0,30.34,ENE,58,2.9,4.0,79,0.00,,,0.00,meteobridge,2013-12-14 06:17:00,
2013-12-14 01:23:00,23.5,18.0,30.33,ENE,61,0.9,6.0,79,0.00,,,0.00,meteobridge,2013-12-14 06:23:00,
2013-12-14 01:30:00,23.4,17.8,30.33,ENE,68,2.9,4.0,79,0.00,,,0.00,meteobridge,2013-12-14 06:30:00,
2013-12-14 01:36:00,23.4,17.8,30.33,ENE,58,2.0,2.9,79,0.00,,,0.00,meteobridge,2013-12-14 06:36:00,
2013-12-14 01:42:00,23.2,18.0,30.33,NE,49,2.9,4.0,80,0.00,,,0.00,meteobridge,2013-12-14 06:42:00,
2013-12-14 01:48:00,23.2,18.0,30.34,ENE,74,2.9,4.0,80,0.00,,,0.00,meteobridge,2013-12-14 06:48:00,
2013-12-14 01:55:00,23.2,17.6,30.35,NE,54,0.9,2.0,79,0.00,,,0.00,meteobridge,2013-12-14 06:55:00,
2013-12-14 02:01:00,23.2,17.6,30.35,NE,49,0.0,2.9,79,0.00,,,0.00,meteobridge,2013-12-14 07:01:00,
2013-12-14 02:07:00,23.0,17.8,30.35,NNE,24,0.9,0.9,80,0.00,,,0.00,meteobridge,2013-12-14 07:07:00,
2013-12-14 02:13:00,22.8,17.6,30.35,ENE,67,2.9,2.9,80,0.00,,,0.00,meteobridge,2013-12-14 07:13:00,
2013-12-14 02:19:00,22.8,17.6,30.36,ENE,70,0.9,2.9,80,0.00,,,0.00,meteobridge,2013-12-14 07:19:00,
2013-12-14 02:26:00,22.6,17.8,30.36,ENE,60,2.9,2.9,81,0.00,,,0.00,meteobridge,2013-12-14 07:26:00,
2013-12-14 02:32:00,22.6,17.8,30.35,ENE,65,2.0,2.9,81,0.00,,,0.00,meteobridge,2013-12-14 07:32:00,
2013-12-14 02:38:00,22.6,17.8,30.36,ENE,70,0.0,2.0,81,0.00,,,0.00,meteobridge,2013-12-14 07:38:00,
2013-12-14 02:45:00,22.5,17.6,30.35,ENE,58,2.0,2.9,81,0.00,,,0.00,meteobridge,2013-12-14 07:45:00,
2013-12-14 02:51:00,22.5,17.6,30.35,ENE,70,2.9,2.9,81,0.00,,,0.00,meteobridge,2013-12-14 07:51:00,
2013-12-14 02:57:00,22.5,17.6,30.35,ENE,66,0.0,2.0,81,0.00,,,0.00,meteobridge,2013-12-14 07:57:00,
2013-12-14 03:04:00,22.5,17.6,30.34,NE,54,2.9,2.9,81,0.00,,,0.00,meteobridge,2013-12-14 08:04:00,
2013-12-14 03:10:00,22.5,17.6,30.34,ENE,60,2.0,2.9,81,0.00,,,0.00,meteobridge,2013-12-14 08:10:00,
2013-12-14 03:16:00,22.3,17.4,30.34,ENE,60,0.9,2.0,81,0.00,,,0.00,meteobridge,2013-12-14 08:16:00,
2013-12-14 03:22:00,22.3,17.4,30.34,ENE,74,0.9,2.9,81,0.00,,,0.00,meteobridge,2013-12-14 08:22:00,
2013-12-14 03:28:00,22.3,17.4,30.35,North,11,0.9,2.0,81,0.00,,,0.00,meteobridge,2013-12-14 08:28:00,
2013-12-14 03:35:00,22.3,17.4,30.35,ENE,58,0.0,2.0,81,0.00,,,0.00,meteobridge,2013-12-14 08:35:00,
2013-12-14 03:41:00,22.1,17.2,30.36,ENE,75,0.0,0.9,81,0.00,,,0.00,meteobridge,2013-12-14 08:41:00,
2013-12-14 03:47:00,21.9,17.1,30.35,NNE,31,0.0,0.9,81,0.00,,,0.00,meteobridge,2013-12-14 08:47:00,
2013-12-14 03:53:00,21.9,17.1,30.36,NE,53,0.9,2.0,81,0.00,,,0.00,meteobridge,2013-12-14 08:53:00,
2013-12-14 04:00:00,21.9,17.1,30.36,ENE,57,0.0,0.0,81,0.00,,,0.00,meteobridge,2013-12-14 09:00:00,
2013-12-14 04:06:00,21.9,17.1,30.36,NNE,19,0.0,0.9,81,0.00,,,0.00,meteobridge,2013-12-14 09:06:00,
2013-12-14 04:12:00,21.7,16.9,30.36,NE,39,0.9,2.0,81,0.00,,,0.00,meteobridge,2013-12-14 09:12:00,
2013-12-14 04:19:00,21.6,16.9,30.36,ESE,104,0.0,2.0,82,0.00,,,0.00,meteobridge,2013-12-14 09:19:00,
2013-12-14 04:25:00,21.6,16.9,30.36,NE,54,0.9,2.0,82,0.00,,,0.00,meteobridge,2013-12-14 09:25:00,
2013-12-14 04:31:00,21.6,16.9,30.36,ENE,77,0.0,2.0,82,0.00,,,0.00,meteobridge,2013-12-14 09:31:00,
2013-12-14 04:37:00,21.4,16.7,30.36,ENE,74,0.0,2.0,82,0.00,,,0.00,meteobridge,2013-12-14 09:37:00,
2013-12-14 04:43:00,21.4,17.1,30.36,NE,47,0.9,4.0,83,0.00,,,0.00,meteobridge,2013-12-14 09:43:00,
2013-12-14 04:50:00,21.2,16.9,30.36,NE,34,0.0,2.0,83,0.00,,,0.00,meteobridge,2013-12-14 09:50:00,
2013-12-14 04:56:00,21.0,16.7,30.36,ENE,57,0.9,2.9,83,0.00,,,0.00,meteobridge,2013-12-14 09:56:00,
2013-12-14 05:02:00,20.8,16.5,30.36,NE,47,0.9,4.0,83,0.00,,,0.00,meteobridge,2013-12-14 10:02:00,
2013-12-14 05:09:00,20.8,16.7,30.36,ENE,73,0.0,2.0,84,0.00,,,0.00,meteobridge,2013-12-14 10:09:00,
2013-12-14 05:15:00,20.7,16.9,30.37,NNE,32,0.9,0.9,85,0.00,,,0.00,meteobridge,2013-12-14 10:15:00,
2013-12-14 05:21:00,20.7,16.9,30.37,ENE,69,0.0,2.0,85,0.00,,,0.00,meteobridge,2013-12-14 10:21:00,
2013-12-14 05:27:00,20.7,16.9,30.37,NE,39,0.0,0.9,85,0.00,,,0.00,meteobridge,2013-12-14 10:27:00,
2013-12-14 05:33:00,20.7,16.9,30.38,ENE,75,0.9,0.9,85,0.00,,,0.00,meteobridge,2013-12-14 10:33:00,
2013-12-14 05:40:00,20.7,17.1,30.38,ENE,74,0.9,2.0,86,0.00,,,0.00,meteobridge,2013-12-14 10:40:00,
2013-12-14 05:46:00,20.5,16.9,30.38,ENE,75,0.9,2.0,86,0.00,,,0.00,meteobridge,2013-12-14 10:46:00,
2013-12-14 05:53:00,20.7,17.1,30.38,ENE,61,2.0,2.9,86,0.00,,,0.00,meteobridge,2013-12-14 10:53:00,
2013-12-14 05:59:00,20.7,17.1,30.38,ENE,57,0.0,2.0,86,0.00,,,0.00,meteobridge,2013-12-14 10:59:00,
2013-12-14 06:05:00,20.7,17.4,30.39,East,79,2.0,2.0,87,0.00,,,0.00,meteobridge,2013-12-14 11:05:00,
2013-12-14 06:11:00,20.5,17.4,30.38,East,92,0.9,2.0,88,0.00,,,0.00,meteobridge,2013-12-14 11:11:00,
2013-12-14 06:18:00,20.5,17.8,30.39,East,94,0.0,0.9,89,0.00,,,0.00,meteobridge,2013-12-14 11:18:00,
2013-12-14 06:24:00,20.5,18.0,30.39,ESE,108,0.9,2.0,90,0.00,,,0.00,meteobridge,2013-12-14 11:24:00,
2013-12-14 06:30:00,20.5,18.0,30.39,ESE,120,2.0,4.0,90,0.00,,,0.00,meteobridge,2013-12-14 11:30:00,
2013-12-14 06:36:00,20.5,18.0,30.39,ESE,107,2.0,2.0,90,0.00,,,0.00,meteobridge,2013-12-14 11:36:00,
2013-12-14 06:42:00,20.5,18.0,30.38,ESE,103,2.0,4.9,90,0.00,,,0.00,meteobridge,2013-12-14 11:42:00,
2013-12-14 06:48:00,20.5,18.0,30.39,East,98,2.9,4.9,90,0.00,,,0.00,meteobridge,2013-12-14 11:48:00,
2013-12-14 06:54:00,20.5,18.0,30.39,ESE,111,2.9,4.0,90,0.00,,,0.00,meteobridge,2013-12-14 11:54:00,
2013-12-14 07:00:00,20.5,18.0,30.39,ESE,114,2.9,4.0,90,0.00,,,0.00,meteobridge,2013-12-14 12:00:00,
2013-12-14 07:06:00,20.5,18.0,30.40,ESE,110,0.9,4.0,90,0.00,,,0.00,meteobridge,2013-12-14 12:06:00,
2013-12-14 07:13:00,20.3,17.8,30.40,ESE,112,4.0,4.9,90,0.00,,,0.00,meteobridge,2013-12-14 12:13:00,
2013-12-14 07:19:00,20.1,17.6,30.40,ESE,117,0.9,2.9,90,0.00,,,0.00,meteobridge,2013-12-14 12:19:00,
2013-12-14 07:25:00,20.1,17.6,30.40,East,101,4.0,8.1,90,0.00,,,0.00,meteobridge,2013-12-14 12:25:00,
2013-12-14 07:31:00,20.1,17.6,30.40,ENE,67,0.9,4.0,90,0.00,,,0.00,meteobridge,2013-12-14 12:31:00,
2013-12-14 07:37:00,20.1,17.6,30.41,ESE,103,0.9,4.0,90,0.00,,,0.00,meteobridge,2013-12-14 12:37:00,
2013-12-14 07:43:00,20.1,17.6,30.41,ESE,115,4.0,6.0,90,0.00,,,0.00,meteobridge,2013-12-14 12:43:00,
2013-12-14 07:49:00,19.9,17.2,30.41,ESE,106,4.0,6.9,89,0.00,,,0.00,meteobridge,2013-12-14 12:49:00,
2013-12-14 07:55:00,19.9,17.2,30.41,ESE,120,2.0,6.0,89,0.00,,,0.00,meteobridge,2013-12-14 12:55:00,
2013-12-14 08:02:00,19.9,17.4,30.41,ESE,103,2.0,4.0,90,0.00,,,0.00,meteobridge,2013-12-14 13:02:00,
2013-12-14 08:08:00,19.9,17.4,30.42,SSE,155,2.9,2.9,90,0.00,,,0.00,meteobridge,2013-12-14 13:08:00,
2013-12-14 08:14:00,19.9,17.2,30.42,SSE,151,2.0,6.9,89,0.00,,,0.00,meteobridge,2013-12-14 13:14:00,
2013-12-14 08:20:00,19.8,17.1,30.42,SSE,155,6.9,8.1,89,0.00,,,0.00,meteobridge,2013-12-14 13:20:00,
2013-12-14 08:26:00,19.6,17.1,30.42,SE,131,4.0,6.0,90,0.00,,,0.00,meteobridge,2013-12-14 13:26:00,
2013-12-14 08:32:00,19.6,17.1,30.42,ESE,108,2.9,4.9,90,0.00,,,0.00,meteobridge,2013-12-14 13:32:00,
2013-12-14 08:38:00,19.6,17.1,30.42,SE,128,2.9,6.9,90,0.00,,,0.00,meteobridge,2013-12-14 13:38:00,
2013-12-14 08:45:00,19.6,17.1,30.42,SE,131,6.0,8.9,90,0.00,,,0.00,meteobridge,2013-12-14 13:45:00,
2013-12-14 08:51:00,19.6,16.9,30.42,SSW,201,2.9,10.1,89,0.00,,,0.00,meteobridge,2013-12-14 13:51:00,
2013-12-14 08:57:00,19.4,16.7,30.42,ESE,110,4.0,6.9,89,0.00,,,0.00,meteobridge,2013-12-14 13:57:00,
2013-12-14 09:03:00,19.2,16.5,30.43,SE,137,2.9,8.1,89,0.00,,,0.00,meteobridge,2013-12-14 14:03:00,
2013-12-14 09:09:00,19.2,16.5,30.43,SE,127,2.9,4.9,89,0.00,,,0.00,meteobridge,2013-12-14 14:09:00,
2013-12-14 09:15:00,19.2,16.5,30.44,SE,145,2.0,4.0,89,0.00,,,0.00,meteobridge,2013-12-14 14:15:00,
2013-12-14 09:21:00,19.4,16.7,30.44,ESE,118,2.9,2.9,89,0.00,,,0.00,meteobridge,2013-12-14 14:21:00,
2013-12-14 09:27:00,19.6,16.9,30.43,East,87,2.9,4.9,89,0.00,,,0.00,meteobridge,2013-12-14 14:27:00,
2013-12-14 09:34:00,19.6,16.9,30.44,ESE,117,4.0,4.0,89,0.00,,,0.00,meteobridge,2013-12-14 14:34:00,
2013-12-14 09:40:00,19.2,16.5,30.44,ESE,103,4.9,8.1,89,0.00,,,0.00,meteobridge,2013-12-14 14:40:00,
2013-12-14 09:46:00,19.2,16.5,30.44,East,90,6.9,8.1,89,0.00,,,0.00,meteobridge,2013-12-14 14:46:00,
2013-12-14 09:52:00,19.2,16.5,30.45,ENE,77,6.0,6.9,89,0.00,,,0.00,meteobridge,2013-12-14 14:52:00,
2013-12-14 09:58:00,19.4,16.7,30.45,ESE,105,4.0,4.9,89,0.00,,,0.00,meteobridge,2013-12-14 14:58:00,
2013-12-14 10:04:00,19.6,16.9,30.45,SSE,153,4.9,4.9,89,0.00,,,0.00,meteobridge,2013-12-14 15:04:00,
2013-12-14 10:10:00,19.8,17.1,30.45,ESE,103,2.9,4.9,89,0.00,,,0.00,meteobridge,2013-12-14 15:10:00,
2013-12-14 10:16:00,19.9,17.2,30.44,ENE,63,4.0,4.0,89,0.00,,,0.00,meteobridge,2013-12-14 15:16:00,
2013-12-14 10:23:00,20.1,17.4,30.44,SE,134,2.0,4.9,89,0.00,,,0.00,meteobridge,2013-12-14 15:23:00,
2013-12-14 10:29:00,20.3,17.6,30.45,East,83,6.0,6.0,89,0.00,,,0.00,meteobridge,2013-12-14 15:29:00,
2013-12-14 10:35:00,19.9,16.9,30.44,ESE,113,2.9,8.1,88,0.00,,,0.00,meteobridge,2013-12-14 15:35:00,
2013-12-14 10:41:00,19.8,16.7,30.44,ENE,74,6.9,6.9,88,0.00,,,0.00,meteobridge,2013-12-14 15:41:00,
2013-12-14 10:47:00,19.6,16.9,30.44,ENE,73,4.0,4.9,89,0.00,,,0.00,meteobridge,2013-12-14 15:47:00,
2013-12-14 10:53:00,19.8,17.2,30.43,ESE,115,4.9,4.9,90,0.00,,,0.00,meteobridge,2013-12-14 15:53:00,
2013-12-14 10:59:00,19.8,17.1,30.43,ESE,107,4.0,6.0,89,0.00,,,0.00,meteobridge,2013-12-14 15:59:00,
2013-12-14 11:06:00,19.6,16.9,30.42,ENE,70,4.9,6.9,89,0.00,,,0.00,meteobridge,2013-12-14 16:06:00,
2013-12-14 11:12:00,19.6,16.9,30.41,SE,129,4.0,6.9,89,0.00,,,0.00,meteobridge,2013-12-14 16:12:00,
2013-12-14 11:18:00,19.6,16.9,30.41,ESE,115,4.9,6.0,89,0.00,,,0.00,meteobridge,2013-12-14 16:18:00,
2013-12-14 11:24:00,19.9,17.2,30.41,East,85,4.0,6.9,89,0.00,,,0.00,meteobridge,2013-12-14 16:24:00,
2013-12-14 11:30:00,19.9,17.2,30.40,ENE,77,4.0,6.0,89,0.00,,,0.00,meteobridge,2013-12-14 16:30:00,
2013-12-14 11:36:00,19.9,17.2,30.40,East,81,8.9,8.9,89,0.00,,,0.00,meteobridge,2013-12-14 16:36:00,
2013-12-14 11:42:00,19.9,17.2,30.39,SE,131,4.9,8.9,89,0.00,,,0.00,meteobridge,2013-12-14 16:42:00,
2013-12-14 11:48:00,19.9,17.2,30.38,ESE,105,4.9,6.9,89,0.00,,,0.00,meteobridge,2013-12-14 16:48:00,
2013-12-14 11:54:00,20.1,17.4,30.38,South,173,2.0,6.0,89,0.00,,,0.00,meteobridge,2013-12-14 16:54:00,
2013-12-14 12:01:00,20.3,17.8,30.37,East,98,2.9,6.0,90,0.00,,,0.00,meteobridge,2013-12-14 17:01:00,
2013-12-14 12:07:00,20.1,17.4,30.37,ENE,58,4.9,8.9,89,0.00,,,0.00,meteobridge,2013-12-14 17:07:00,
2013-12-14 12:13:00,20.1,17.4,30.37,East,85,4.0,4.9,89,0.00,,,0.00,meteobridge,2013-12-14 17:13:00,
2013-12-14 12:19:00,20.1,17.4,30.37,ESE,110,2.9,6.0,89,0.00,,,0.00,meteobridge,2013-12-14 17:19:00,
2013-12-14 12:25:00,20.1,17.6,30.36,East,96,4.0,6.9,90,0.00,,,0.00,meteobridge,2013-12-14 17:25:00,
2013-12-14 12:31:00,20.1,17.4,30.35,ESE,107,4.9,6.0,89,0.00,,,0.00,meteobridge,2013-12-14 17:31:00,
2013-12-14 12:37:00,20.5,17.8,30.35,SSE,158,6.0,6.9,89,0.00,,,0.00,meteobridge,2013-12-14 17:37:00,
2013-12-14 12:43:00,20.5,17.8,30.35,ESE,117,4.0,4.9,89,0.00,,,0.00,meteobridge,2013-12-14 17:43:00,
2013-12-14 12:49:00,20.3,17.6,30.35,ENE,75,2.9,6.0,89,0.00,,,0.00,meteobridge,2013-12-14 17:49:00,
2013-12-14 12:55:00,20.1,17.6,30.34,ESE,120,6.0,8.9,90,0.00,,,0.00,meteobridge,2013-12-14 17:55:00,
2013-12-14 13:01:00,19.9,17.4,30.34,East,83,8.1,10.1,90,0.00,,,0.00,meteobridge,2013-12-14 18:01:00,
2013-12-14 13:08:00,19.9,17.4,30.33,East,79,6.0,8.9,90,0.00,,,0.00,meteobridge,2013-12-14 18:08:00,
2013-12-14 13:14:00,19.9,17.8,30.33,SSE,163,2.0,6.9,91,0.00,,,0.00,meteobridge,2013-12-14 18:14:00,
2013-12-14 13:20:00,19.9,17.8,30.33,ESE,110,4.0,4.9,91,0.00,,,0.00,meteobridge,2013-12-14 18:20:00,
2013-12-14 13:26:00,19.9,17.8,30.32,ENE,73,6.0,6.0,91,0.00,,,0.00,meteobridge,2013-12-14 18:26:00,
2013-12-14 13:32:00,19.8,17.6,30.32,ESE,120,4.9,8.9,91,0.00,,,0.00,meteobridge,2013-12-14 18:32:00,
2013-12-14 13:38:00,19.6,17.4,30.32,ESE,113,6.9,12.1,91,0.00,,,0.00,meteobridge,2013-12-14 18:38:00,
2013-12-14 13:44:00,19.4,17.2,30.31,ESE,117,4.9,8.9,91,0.00,,,0.00,meteobridge,2013-12-14 18:44:00,
2013-12-14 13:51:00,19.6,17.4,30.31,ESE,113,6.0,10.1,91,0.00,,,0.00,meteobridge,2013-12-14 18:51:00,
2013-12-14 13:57:00,19.4,17.2,30.32,ESE,108,6.0,6.9,91,0.00,,,0.00,meteobridge,2013-12-14 18:57:00,
2013-12-14 14:03:00,19.2,17.1,30.31,SSE,149,4.9,8.9,91,0.00,,,0.00,meteobridge,2013-12-14 19:03:00,
2013-12-14 14:09:00,19.2,17.1,30.31,ESE,110,4.0,6.0,91,0.00,,,0.00,meteobridge,2013-12-14 19:09:00,
2013-12-14 14:15:00,19.2,17.2,30.30,ESE,112,2.9,4.9,92,0.00,,,0.00,meteobridge,2013-12-14 19:15:00,
2013-12-14 14:21:00,19.0,16.9,30.29,ESE,110,6.0,8.9,91,0.00,,,0.00,meteobridge,2013-12-14 19:21:00,
2013-12-14 14:28:00,18.9,16.7,30.29,East,101,6.0,14.1,91,0.00,,,0.00,meteobridge,2013-12-14 19:28:00,
2013-12-14 14:34:00,18.7,16.5,30.29,ENE,70,6.9,12.1,91,0.00,,,0.00,meteobridge,2013-12-14 19:34:00,
2013-12-14 14:40:00,18.7,16.5,30.28,East,90,4.9,12.1,91,0.00,,,0.00,meteobridge,2013-12-14 19:40:00,
2013-12-14 14:46:00,18.5,16.5,30.29,ESE,117,6.0,8.9,92,0.00,,,0.00,meteobridge,2013-12-14 19:46:00,
2013-12-14 14:52:00,18.5,16.5,30.28,SSE,148,4.9,8.9,92,0.00,,,0.00,meteobridge,2013-12-14 19:52:00,
2013-12-14 14:58:00,18.5,16.5,30.29,SE,125,2.0,12.1,92,0.00,,,0.00,meteobridge,2013-12-14 19:58:00,
2013-12-14 15:04:00,18.3,16.3,30.28,ESE,108,4.9,8.9,92,0.00,,,0.00,meteobridge,2013-12-14 20:04:00,
2013-12-14 15:10:00,18.1,16.2,30.28,SE,128,6.9,10.1,92,0.00,,,0.00,meteobridge,2013-12-14 20:10:00,
2013-12-14 15:16:00,18.0,15.8,30.27,SSE,163,4.9,13.0,91,0.00,,,0.00,meteobridge,2013-12-14 20:16:00,
2013-12-14 15:22:00,17.8,15.6,30.27,SE,128,6.9,13.0,91,0.00,,,0.00,meteobridge,2013-12-14 20:22:00,
2013-12-14 15:28:00,17.6,15.4,30.27,SSE,163,4.0,11.0,91,0.00,,,0.00,meteobridge,2013-12-14 20:28:00,
2013-12-14 15:35:00,17.6,15.6,30.27,ESE,117,6.9,15.0,92,0.00,,,0.00,meteobridge,2013-12-14 20:35:00,
2013-12-14 15:41:00,17.4,15.4,30.27,ESE,110,4.9,13.0,92,0.00,,,0.00,meteobridge,2013-12-14 20:41:00,
2013-12-14 15:47:00,17.4,15.4,30.27,East,101,6.9,11.0,92,0.00,,,0.00,meteobridge,2013-12-14 20:47:00,
2013-12-14 15:53:00,17.4,15.4,30.27,ESE,105,4.9,8.1,92,0.00,,,0.00,meteobridge,2013-12-14 20:53:00,
2013-12-14 15:59:00,17.4,15.4,30.26,ESE,114,4.9,8.9,92,0.00,,,0.00,meteobridge,2013-12-14 20:59:00,
2013-12-14 16:05:00,17.4,15.4,30.25,ENE,75,8.9,11.0,92,0.00,,,0.00,meteobridge,2013-12-14 21:05:00,
2013-12-14 16:12:00,17.2,15.3,30.26,ESE,113,6.9,10.1,92,0.00,,,0.00,meteobridge,2013-12-14 21:12:00,
2013-12-14 16:18:00,17.1,15.1,30.25,East,79,4.9,13.0,92,0.00,,,0.00,meteobridge,2013-12-14 21:18:00,
2013-12-14 16:24:00,17.1,15.1,30.24,East,96,6.0,8.9,92,0.00,,,0.00,meteobridge,2013-12-14 21:24:00,
2013-12-14 16:30:00,17.1,15.4,30.24,SE,128,6.0,12.1,93,0.00,,,0.00,meteobridge,2013-12-14 21:30:00,
2013-12-14 16:36:00,16.9,15.3,30.23,East,88,8.9,10.1,93,0.00,,,0.00,meteobridge,2013-12-14 21:36:00,
2013-12-14 16:42:00,16.7,15.1,30.22,East,79,8.1,11.0,93,0.00,,,0.00,meteobridge,2013-12-14 21:42:00,
2013-12-14 16:48:00,16.7,15.1,30.22,SE,145,6.0,10.1,93,0.00,,,0.00,meteobridge,2013-12-14 21:48:00,
2013-12-14 16:54:00,16.7,15.1,30.21,ESE,115,6.9,14.1,93,0.00,,,0.00,meteobridge,2013-12-14 21:54:00,
2013-12-14 17:00:00,16.5,14.9,30.21,WSW,249,4.9,8.1,93,0.00,,,0.00,meteobridge,2013-12-14 22:00:00,
2013-12-14 17:07:00,16.5,14.9,30.21,ESE,105,6.0,8.9,93,0.00,,,0.00,meteobridge,2013-12-14 22:07:00,
2013-12-14 17:13:00,16.5,14.9,30.21,East,89,10.1,11.0,93,0.00,,,0.00,meteobridge,2013-12-14 22:13:00,
2013-12-14 17:19:00,16.3,14.7,30.20,ESE,110,4.9,10.1,93,0.00,,,0.00,meteobridge,2013-12-14 22:19:00,
2013-12-14 17:25:00,16.3,14.4,30.20,ESE,105,6.9,10.1,92,0.00,,,0.00,meteobridge,2013-12-14 22:25:00,
2013-12-14 17:31:00,16.2,14.2,30.21,SE,131,4.9,13.0,92,0.00,,,0.00,meteobridge,2013-12-14 22:31:00,
2013-12-14 17:37:00,16.2,14.2,30.20,ESE,104,13.0,16.1,92,0.00,,,0.00,meteobridge,2013-12-14 22:37:00,
2013-12-14 17:43:00,16.2,14.2,30.19,ESE,105,6.9,16.1,92,0.00,,,0.00,meteobridge,2013-12-14 22:43:00,
2013-12-14 17:49:00,16.2,14.2,30.18,East,86,6.9,10.1,92,0.00,,,0.00,meteobridge,2013-12-14 22:49:00,
2013-12-14 17:55:00,16.2,14.2,30.18,SSE,153,8.9,13.0,92,0.00,,,0.00,meteobridge,2013-12-14 22:55:00,
2013-12-14 18:01:00,16.0,14.0,30.18,ESE,104,10.1,17.0,92,0.00,,,0.00,meteobridge,2013-12-14 23:01:00,
2013-12-14 18:08:00,16.0,14.0,30.17,ESE,111,6.9,12.1,92,0.00,,,0.00,meteobridge,2013-12-14 23:08:00,
2013-12-14 18:14:00,16.0,14.0,30.17,ESE,110,8.1,14.1,92,0.00,,,0.00,meteobridge,2013-12-14 23:14:00,
2013-12-14 18:20:00,15.8,13.8,30.17,ESE,105,6.0,12.1,92,0.00,,,0.00,meteobridge,2013-12-14 23:20:00,
2013-12-14 18:26:00,15.6,13.6,30.17,East,98,6.0,8.9,92,0.00,,,0.00,meteobridge,2013-12-14 23:26:00,
2013-12-14 18:32:00,15.6,14.0,30.17,SE,139,4.9,8.9,93,0.00,,,0.00,meteobridge,2013-12-14 23:32:00,
2013-12-14 18:38:00,15.6,14.0,30.17,ESE,107,4.0,11.0,93,0.00,,,0.00,meteobridge,2013-12-14 23:38:00,
2013-12-14 18:44:00,15.4,13.8,30.16,East,98,4.9,14.1,93,0.00,,,0.00,meteobridge,2013-12-14 23:44:00,
2013-12-14 18:51:00,15.4,13.8,30.16,ESE,116,6.0,11.0,93,0.00,,,0.00,meteobridge,2013-12-14 23:51:00,
2013-12-14 18:57:00,15.4,13.8,30.15,ENE,74,8.1,10.1,93,0.00,,,0.00,meteobridge,2013-12-14 23:57:00,
2013-12-14 19:03:00,15.4,13.8,30.14,SSE,149,8.1,11.0,93,0.00,,,0.00,meteobridge,2013-12-15 00:03:00,
2013-12-14 19:09:00,15.4,13.8,30.13,SSE,159,8.1,13.0,93,0.00,,,0.00,meteobridge,2013-12-15 00:09:00,
2013-12-14 19:15:00,15.4,13.8,30.12,SE,124,8.1,19.0,93,0.00,,,0.00,meteobridge,2013-12-15 00:15:00,
2013-12-14 19:22:00,15.6,14.0,30.11,ESE,113,6.0,13.0,93,0.00,,,0.00,meteobridge,2013-12-15 00:22:00,
2013-12-14 19:28:00,15.6,14.0,30.11,SE,142,6.0,16.1,93,0.00,,,0.00,meteobridge,2013-12-15 00:28:00,
2013-12-14 19:34:00,15.6,14.0,30.11,ESE,122,8.9,12.1,93,0.00,,,0.00,meteobridge,2013-12-15 00:34:00,
2013-12-14 19:40:00,15.8,14.2,30.11,ESE,118,8.1,12.1,93,0.00,,,0.00,meteobridge,2013-12-15 00:40:00,
2013-12-14 19:46:00,16.0,14.4,30.11,SE,143,4.9,14.1,93,0.00,,,0.00,meteobridge,2013-12-15 00:46:00,
2013-12-14 19:52:00,16.2,14.5,30.10,ESE,103,8.9,12.1,93,0.00,,,0.00,meteobridge,2013-12-15 00:52:00,
2013-12-14 19:58:00,16.2,14.5,30.09,SE,131,16.1,16.1,93,0.00,,,0.00,meteobridge,2013-12-15 00:58:00,
2013-12-14 20:04:00,16.2,14.5,30.08,East,80,10.1,15.0,93,0.00,,,0.00,meteobridge,2013-12-15 01:04:00,
2013-12-14 20:10:00,16.2,14.5,30.06,SE,142,6.0,13.0,93,0.00,,,0.00,meteobridge,2013-12-15 01:10:00,
2013-12-14 20:17:00,16.3,14.7,30.05,ESE,117,8.9,15.0,93,0.00,,,0.00,meteobridge,2013-12-15 01:17:00,
2013-12-14 20:23:00,16.5,14.9,30.05,ESE,122,8.9,11.0,93,0.00,,,0.00,meteobridge,2013-12-15 01:23:00,
2013-12-14 20:29:00,16.9,15.3,30.04,SE,143,2.9,8.9,93,0.00,,,0.00,meteobridge,2013-12-15 01:29:00,
2013-12-14 20:35:00,17.1,15.4,30.05,East,79,6.9,8.1,93,0.00,,,0.00,meteobridge,2013-12-15 01:35:00,
2013-12-14 20:41:00,17.2,15.6,30.04,SE,125,6.9,16.1,93,0.00,,,0.00,meteobridge,2013-12-15 01:41:00,
2013-12-14 20:47:00,17.2,15.6,30.03,East,94,8.1,10.1,93,0.00,,,0.00,meteobridge,2013-12-15 01:47:00,
2013-12-14 20:53:00,17.6,16.0,30.03,East,91,8.1,11.0,93,0.00,,,0.00,meteobridge,2013-12-15 01:53:00,
2013-12-14 20:59:00,17.8,16.2,30.02,SE,126,4.9,10.1,93,0.00,,,0.00,meteobridge,2013-12-15 01:59:00,
2013-12-14 21:06:00,18.0,16.3,30.02,NE,51,4.9,8.9,93,0.00,,,0.00,meteobridge,2013-12-15 02:06:00,
2013-12-14 21:12:00,18.1,16.5,30.02,ESE,103,4.0,12.1,93,0.00,,,0.00,meteobridge,2013-12-15 02:12:00,
2013-12-14 21:18:00,18.1,16.5,30.01,ESE,107,6.0,11.0,93,0.00,,,0.00,meteobridge,2013-12-15 02:18:00,
2013-12-14 21:24:00,18.3,16.7,30.00,ESE,115,4.0,8.1,93,0.00,,,0.00,meteobridge,2013-12-15 02:24:00,
2013-12-14 21:30:00,18.5,17.1,29.99,East,82,6.0,11.0,94,0.00,,,0.00,meteobridge,2013-12-15 02:30:00,
2013-12-14 21:36:00,18.5,16.9,29.98,ESE,113,2.9,13.0,93,0.00,,,0.00,meteobridge,2013-12-15 02:36:00,
2013-12-14 21:42:00,18.7,17.1,29.98,ESE,102,8.9,10.1,93,0.00,,,0.00,meteobridge,2013-12-15 02:42:00,
2013-12-14 21:48:00,18.9,17.4,29.97,SE,137,6.9,14.1,94,0.00,,,0.00,meteobridge,2013-12-15 02:48:00,
2013-12-14 21:54:00,19.0,17.6,29.96,East,82,10.1,13.0,94,0.00,,,0.00,meteobridge,2013-12-15 02:54:00,
2013-12-14 22:00:00,19.4,18.0,29.94,East,100,8.9,13.0,94,0.00,,,0.00,meteobridge,2013-12-15 03:00:00,
2013-12-14 22:07:00,19.8,18.3,29.93,ENE,63,6.9,14.1,94,0.00,,,0.00,meteobridge,2013-12-15 03:07:00,
2013-12-14 22:13:00,19.9,18.5,29.92,ENE,58,4.0,8.9,94,0.00,,,0.00,meteobridge,2013-12-15 03:13:00,
2013-12-14 22:19:00,20.5,19.0,29.91,SE,135,8.1,17.0,94,0.00,,,0.00,meteobridge,2013-12-15 03:19:00,
2013-12-14 22:25:00,20.7,19.2,29.90,SSE,148,6.0,16.1,94,0.00,,,0.00,meteobridge,2013-12-15 03:25:00,
2013-12-14 22:31:00,20.8,19.4,29.89,ENE,75,8.9,13.0,94,0.00,,,0.00,meteobridge,2013-12-15 03:31:00,
2013-12-14 22:37:00,21.0,19.6,29.88,SE,127,8.1,19.0,94,0.00,,,0.00,meteobridge,2013-12-15 03:37:00,
2013-12-14 22:43:00,21.2,19.8,29.88,ENE,73,13.0,13.0,94,0.00,,,0.00,meteobridge,2013-12-15 03:43:00,
2013-12-14 22:49:00,21.4,19.9,29.87,ENE,60,21.0,21.0,94,0.00,,,0.00,meteobridge,2013-12-15 03:49:00,
2013-12-14 22:55:00,21.7,20.3,29.88,ESE,104,6.0,11.0,94,0.00,,,0.00,meteobridge,2013-12-15 03:55:00,
2013-12-14 23:01:00,21.9,20.5,29.86,SE,128,12.1,12.1,94,0.00,,,0.00,meteobridge,2013-12-15 04:01:00,
2013-12-14 23:07:00,22.3,20.8,29.85,ESE,108,4.9,16.1,94,0.00,,,0.00,meteobridge,2013-12-15 04:07:00,
2013-12-14 23:14:00,22.5,21.0,29.84,East,93,6.9,11.0,94,0.00,,,0.00,meteobridge,2013-12-15 04:14:00,
2013-12-14 23:20:00,22.6,21.2,29.83,ENE,76,6.0,8.1,94,0.00,,,0.00,meteobridge,2013-12-15 04:20:00,
2013-12-14 23:26:00,23.2,21.7,29.83,East,83,13.0,13.0,94,0.00,,,0.00,meteobridge,2013-12-15 04:26:00,
2013-12-14 23:32:00,23.4,21.9,29.81,East,97,11.0,11.0,94,0.00,,,0.00,meteobridge,2013-12-15 04:32:00,
2013-12-14 23:38:00,23.7,22.3,29.81,ESE,105,8.1,12.1,94,0.00,,,0.00,meteobridge,2013-12-15 04:38:00,
2013-12-14 23:44:00,24.3,22.8,29.79,ESE,120,6.9,13.0,94,0.00,,,0.00,meteobridge,2013-12-15 04:44:00,
2013-12-14 23:50:00,24.6,23.2,29.79,ESE,118,10.1,15.0,94,0.00,,,0.00,meteobridge,2013-12-15 04:50:00,
2013-12-14 23:57:00,25.0,23.5,29.79,ESE,120,6.0,16.1,94,0.00,,,0.00,meteobridge,2013-12-15 04:57:00,